APG531 RPVI-RPVM
Flight info
| Callsign | APG531 |
|---|---|
| Flight time | 0h 25m |
| Altitude | 17000 |
| Route | TADAG |
| Aircraft | A320/M-SDE3FGHIRWY/LB1 |
Departure
| Time | 2026-04-16 14:09 |
|---|---|
| Airport | Iloilo International Airport (RPVI) |
Arrival
| Time | 2026-04-16 14:34 |
|---|---|
| Airport | Mactan Cebu International Airport (RPVM) |
| Time | Latitude | Longitude | Altitude | Speed | Heading |
|---|---|---|---|---|---|
| 2026-04-16 13:38 | 10.83113 | 122.49651 | 175 ft | 0 kts | 110° |
| 2026-04-16 14:00 | 10.83114 | 122.49650 | 175 ft | 1 kts | 110° |
| 2026-04-16 14:01 | 10.83119 | 122.49635 | 175 ft | 2 kts | 110° |
| 2026-04-16 14:01 | 10.83124 | 122.49621 | 175 ft | 2 kts | 110° |
| 2026-04-16 14:01 | 10.83129 | 122.49607 | 175 ft | 2 kts | 110° |
| 2026-04-16 14:01 | 10.83132 | 122.49597 | 175 ft | 2 kts | 107° |
| 2026-04-16 14:02 | 10.83133 | 122.49582 | 175 ft | 2 kts | 77° |
| 2026-04-16 14:02 | 10.83127 | 122.49568 | 175 ft | 2 kts | 53° |
| 2026-04-16 14:02 | 10.83116 | 122.49558 | 175 ft | 2 kts | 28° |
| 2026-04-16 14:02 | 10.83110 | 122.49555 | 175 ft | 1 kts | 16° |
| 2026-04-16 14:03 | 10.83106 | 122.49554 | 175 ft | 0 kts | 19° |
| 2026-04-16 14:05 | 10.83118 | 122.49558 | 175 ft | 4 kts | 21° |
| 2026-04-16 14:05 | 10.83169 | 122.49578 | 175 ft | 10 kts | 20° |
| 2026-04-16 14:05 | 10.83242 | 122.49606 | 175 ft | 13 kts | 20° |
| 2026-04-16 14:05 | 10.83336 | 122.49641 | 175 ft | 14 kts | 20° |
| 2026-04-16 14:06 | 10.83425 | 122.49674 | 175 ft | 12 kts | 19° |
| 2026-04-16 14:06 | 10.83497 | 122.49644 | 175 ft | 12 kts | 294° |
| 2026-04-16 14:06 | 10.83529 | 122.49560 | 175 ft | 13 kts | 290° |
| 2026-04-16 14:06 | 10.83564 | 122.49472 | 175 ft | 13 kts | 307° |
| 2026-04-16 14:07 | 10.83656 | 122.49468 | 175 ft | 16 kts | 20° |
| 2026-04-16 14:07 | 10.83785 | 122.49515 | 175 ft | 22 kts | 19° |
| 2026-04-16 14:07 | 10.83929 | 122.49569 | 175 ft | 21 kts | 21° |
| 2026-04-16 14:07 | 10.84070 | 122.49621 | 175 ft | 21 kts | 20° |
| 2026-04-16 14:08 | 10.84205 | 122.49672 | 175 ft | 16 kts | 20° |
| 2026-04-16 14:08 | 10.84284 | 122.49716 | 175 ft | 13 kts | 52° |
| 2026-04-16 14:08 | 10.84344 | 122.49727 | 175 ft | 10 kts | 281° |
| 2026-04-16 14:08 | 10.84307 | 122.49709 | 175 ft | 6 kts | 198° |
| 2026-04-16 14:09 | 10.84151 | 122.49651 | 175 ft | 58 kts | 200° |
| 2026-04-16 14:09 | 10.83523 | 122.49419 | 175 ft | 130 kts | 200° |
| 2026-04-16 14:09 | 10.82546 | 122.49058 | 493 ft | 157 kts | 200° |
| 2026-04-16 14:09 | 10.81530 | 122.48683 | 1103 ft | 160 kts | 198° |
| 2026-04-16 14:10 | 10.80435 | 122.48631 | 1759 ft | 162 kts | 155° |
| 2026-04-16 14:10 | 10.79538 | 122.49302 | 2252 ft | 168 kts | 135° |
| 2026-04-16 14:10 | 10.78715 | 122.50201 | 2653 ft | 181 kts | 132° |
| 2026-04-16 14:10 | 10.77819 | 122.51182 | 3026 ft | 198 kts | 133° |
| 2026-04-16 14:11 | 10.76826 | 122.52213 | 3395 ft | 216 kts | 135° |
| 2026-04-16 14:11 | 10.75684 | 122.53352 | 3739 ft | 239 kts | 136° |
| 2026-04-16 14:11 | 10.74448 | 122.54547 | 4353 ft | 251 kts | 136° |
| 2026-04-16 14:11 | 10.73183 | 122.55753 | 5167 ft | 254 kts | 137° |
| 2026-04-16 14:12 | 10.71899 | 122.56969 | 5991 ft | 256 kts | 137° |
| 2026-04-16 14:12 | 10.70601 | 122.58193 | 6810 ft | 259 kts | 137° |
| 2026-04-16 14:12 | 10.69273 | 122.59442 | 7639 ft | 263 kts | 137° |
| 2026-04-16 14:12 | 10.67943 | 122.60691 | 8463 ft | 266 kts | 137° |
| 2026-04-16 14:13 | 10.66590 | 122.61961 | 9293 ft | 269 kts | 137° |
| 2026-04-16 14:13 | 10.65207 | 122.63258 | 10130 ft | 272 kts | 137° |
| 2026-04-16 14:13 | 10.63831 | 122.64548 | 10937 ft | 275 kts | 137° |
| 2026-04-16 14:13 | 10.62414 | 122.65877 | 11740 ft | 279 kts | 137° |
| 2026-04-16 14:14 | 10.60990 | 122.67211 | 12516 ft | 282 kts | 137° |
| 2026-04-16 14:14 | 10.59547 | 122.68563 | 13274 ft | 285 kts | 137° |
| 2026-04-16 14:14 | 10.58090 | 122.69928 | 14012 ft | 288 kts | 137° |
| 2026-04-16 14:14 | 10.56629 | 122.71297 | 14726 ft | 292 kts | 137° |
| 2026-04-16 14:15 | 10.55137 | 122.72694 | 15429 ft | 295 kts | 137° |
| 2026-04-16 14:15 | 10.53618 | 122.74116 | 16124 ft | 298 kts | 137° |
| 2026-04-16 14:15 | 10.52096 | 122.75542 | 16660 ft | 301 kts | 137° |
| 2026-04-16 14:15 | 10.50560 | 122.76981 | 16902 ft | 302 kts | 137° |
| 2026-04-16 14:16 | 10.49018 | 122.78424 | 16908 ft | 302 kts | 137° |
| 2026-04-16 14:16 | 10.47476 | 122.79866 | 16910 ft | 302 kts | 137° |
| 2026-04-16 14:16 | 10.45927 | 122.81316 | 16911 ft | 301 kts | 137° |
| 2026-04-16 14:16 | 10.44398 | 122.82746 | 16912 ft | 301 kts | 137° |
| 2026-04-16 14:17 | 10.42852 | 122.84192 | 16912 ft | 301 kts | 137° |
| 2026-04-16 14:17 | 10.41320 | 122.85625 | 16912 ft | 301 kts | 137° |
| 2026-04-16 14:17 | 10.39770 | 122.87074 | 16912 ft | 301 kts | 137° |
| 2026-04-16 14:17 | 10.38228 | 122.88515 | 16912 ft | 301 kts | 137° |
| 2026-04-16 14:18 | 10.36681 | 122.89961 | 16912 ft | 301 kts | 137° |
| 2026-04-16 14:18 | 10.35150 | 122.91392 | 16912 ft | 301 kts | 137° |
| 2026-04-16 14:18 | 10.33616 | 122.92825 | 16912 ft | 301 kts | 137° |
| 2026-04-16 14:18 | 10.32059 | 122.94280 | 16912 ft | 301 kts | 137° |
| 2026-04-16 14:19 | 10.30522 | 122.95715 | 16912 ft | 301 kts | 137° |
| 2026-04-16 14:19 | 10.28970 | 122.97165 | 16918 ft | 312 kts | 137° |
| 2026-04-16 14:19 | 10.27327 | 122.98740 | 16916 ft | 334 kts | 133° |
| 2026-04-16 14:19 | 10.25938 | 123.00661 | 16781 ft | 350 kts | 118° |
| 2026-04-16 14:20 | 10.25028 | 123.03005 | 16477 ft | 360 kts | 105° |
| 2026-04-16 14:20 | 10.24444 | 123.05455 | 16200 ft | 361 kts | 102° |
| 2026-04-16 14:20 | 10.23903 | 123.07938 | 15822 ft | 359 kts | 102° |
| 2026-04-16 14:20 | 10.23366 | 123.10413 | 15402 ft | 357 kts | 102° |
| 2026-04-16 14:21 | 10.22834 | 123.12835 | 14972 ft | 354 kts | 102° |
| 2026-04-16 14:21 | 10.22297 | 123.15249 | 14536 ft | 352 kts | 103° |
| 2026-04-16 14:21 | 10.21756 | 123.17660 | 14094 ft | 349 kts | 103° |
| 2026-04-16 14:21 | 10.21212 | 123.20072 | 13653 ft | 347 kts | 103° |
| 2026-04-16 14:22 | 10.20673 | 123.22455 | 13210 ft | 345 kts | 103° |
| 2026-04-16 14:22 | 10.20141 | 123.24800 | 12775 ft | 343 kts | 103° |
| 2026-04-16 14:22 | 10.19608 | 123.27151 | 12339 ft | 341 kts | 103° |
| 2026-04-16 14:22 | 10.19074 | 123.29502 | 11901 ft | 338 kts | 103° |
| 2026-04-16 14:23 | 10.18552 | 123.31800 | 11472 ft | 336 kts | 103° |
| 2026-04-16 14:23 | 10.18032 | 123.34089 | 11087 ft | 331 kts | 103° |
| 2026-04-16 14:23 | 10.17516 | 123.36356 | 10772 ft | 323 kts | 103° |
| 2026-04-16 14:23 | 10.17018 | 123.38539 | 10428 ft | 317 kts | 103° |
| 2026-04-16 14:24 | 10.16528 | 123.40691 | 10123 ft | 310 kts | 103° |
| 2026-04-16 14:24 | 10.16048 | 123.42795 | 9945 ft | 299 kts | 103° |
| 2026-04-16 14:24 | 10.15583 | 123.44835 | 9606 ft | 295 kts | 103° |
| 2026-04-16 14:24 | 10.15123 | 123.46853 | 9234 ft | 293 kts | 103° |
| 2026-04-16 14:25 | 10.14670 | 123.48842 | 8873 ft | 290 kts | 103° |
| 2026-04-16 14:25 | 10.14215 | 123.50835 | 8517 ft | 287 kts | 103° |
| 2026-04-16 14:25 | 10.13772 | 123.52779 | 8173 ft | 285 kts | 103° |
| 2026-04-16 14:25 | 10.13330 | 123.54716 | 7833 ft | 282 kts | 103° |
| 2026-04-16 14:26 | 10.12889 | 123.56648 | 7491 ft | 280 kts | 103° |
| 2026-04-16 14:26 | 10.12452 | 123.58561 | 7151 ft | 277 kts | 103° |
| 2026-04-16 14:26 | 10.12020 | 123.60452 | 6814 ft | 275 kts | 103° |
| 2026-04-16 14:26 | 10.11589 | 123.62343 | 6473 ft | 273 kts | 103° |
| 2026-04-16 14:27 | 10.11159 | 123.64224 | 6134 ft | 271 kts | 103° |
| 2026-04-16 14:27 | 10.10737 | 123.66071 | 5800 ft | 270 kts | 103° |
| 2026-04-16 14:27 | 10.10313 | 123.67921 | 5465 ft | 268 kts | 103° |
| 2026-04-16 14:27 | 10.09891 | 123.69771 | 5130 ft | 267 kts | 103° |
| 2026-04-16 14:28 | 10.09478 | 123.71575 | 4802 ft | 265 kts | 103° |
| 2026-04-16 14:28 | 10.09060 | 123.73404 | 4470 ft | 263 kts | 102° |
| 2026-04-16 14:28 | 10.08954 | 123.75227 | 4104 ft | 263 kts | 78° |
| 2026-04-16 14:28 | 10.09722 | 123.76884 | 3761 ft | 261 kts | 49° |
| 2026-04-16 14:29 | 10.10970 | 123.78188 | 3448 ft | 259 kts | 44° |
| 2026-04-16 14:29 | 10.12276 | 123.79452 | 3134 ft | 257 kts | 43° |
| 2026-04-16 14:29 | 10.13532 | 123.80677 | 3007 ft | 246 kts | 44° |
| 2026-04-16 14:29 | 10.14729 | 123.81861 | 2998 ft | 231 kts | 44° |
| 2026-04-16 14:30 | 10.15840 | 123.82970 | 2985 ft | 217 kts | 44° |
| 2026-04-16 14:30 | 10.16887 | 123.84017 | 2961 ft | 203 kts | 44° |
| 2026-04-16 14:30 | 10.17887 | 123.85019 | 2933 ft | 201 kts | 44° |
| 2026-04-16 14:30 | 10.18874 | 123.86008 | 2830 ft | 200 kts | 44° |
| 2026-04-16 14:31 | 10.19864 | 123.87001 | 2701 ft | 200 kts | 44° |
| 2026-04-16 14:31 | 10.20838 | 123.87978 | 2581 ft | 194 kts | 44° |
| 2026-04-16 14:31 | 10.21760 | 123.88902 | 2321 ft | 183 kts | 44° |
| 2026-04-16 14:31 | 10.22658 | 123.89803 | 1999 ft | 177 kts | 44° |
| 2026-04-16 14:32 | 10.23511 | 123.90659 | 1737 ft | 169 kts | 44° |
| 2026-04-16 14:32 | 10.24318 | 123.91469 | 1503 ft | 159 kts | 44° |
| 2026-04-16 14:32 | 10.25083 | 123.92236 | 1321 ft | 147 kts | 44° |
| 2026-04-16 14:32 | 10.25784 | 123.92940 | 1117 ft | 141 kts | 44° |
| 2026-04-16 14:33 | 10.26478 | 123.93636 | 934 ft | 140 kts | 45° |
| 2026-04-16 14:33 | 10.27175 | 123.94336 | 750 ft | 140 kts | 44° |
| 2026-04-16 14:33 | 10.27865 | 123.95028 | 565 ft | 139 kts | 44° |
| 2026-04-16 14:33 | 10.28557 | 123.95721 | 380 ft | 139 kts | 45° |
| 2026-04-16 14:34 | 10.29239 | 123.96409 | 199 ft | 139 kts | 45° |
| 2026-04-16 14:34 | 10.29917 | 123.97099 | 44 ft | 135 kts | 44° |
| 2026-04-16 14:34 | 10.30488 | 123.97672 | 36 ft | 91 kts | 44° |
| 2026-04-16 14:34 | 10.30821 | 123.98009 | 36 ft | 47 kts | 45° |
| 2026-04-16 14:35 | 10.31006 | 123.98193 | 36 ft | 30 kts | 44° |
| 2026-04-16 14:35 | 10.31148 | 123.98299 | 36 ft | 23 kts | 21° |
| 2026-04-16 14:35 | 10.31296 | 123.98347 | 36 ft | 19 kts | 17° |
| 2026-04-16 14:35 | 10.31410 | 123.98305 | 36 ft | 16 kts | 315° |
| 2026-04-16 14:36 | 10.31488 | 123.98227 | 36 ft | 13 kts | 315° |
| 2026-04-16 14:36 | 10.31553 | 123.98158 | 36 ft | 13 kts | 314° |
| 2026-04-16 14:36 | 10.31547 | 123.98087 | 36 ft | 9 kts | 226° |
| 2026-04-16 14:36 | 10.31500 | 123.98038 | 36 ft | 8 kts | 225° |
| 2026-04-16 14:37 | 10.31456 | 123.97993 | 36 ft | 9 kts | 225° |
| 2026-04-16 14:37 | 10.31415 | 123.97951 | 36 ft | 5 kts | 230° |
| 2026-04-16 14:37 | 10.31419 | 123.97926 | 36 ft | 4 kts | 309° |
| 2026-04-16 14:37 | 10.31438 | 123.97907 | 36 ft | 2 kts | 314° |
| 2026-04-16 14:38 | 10.31449 | 123.97895 | 36 ft | 2 kts | 314° |
| 2026-04-16 14:38 | 10.31456 | 123.97887 | 36 ft | 0 kts | 314° |
| 2026-04-16 14:38 | 10.31457 | 123.97887 | 36 ft | 0 kts | 314° |